createdAt,value
2023-01-18T00:00:29.701Z,97.85
2023-01-18T00:01:29.623Z,97.85
2023-01-18T00:02:29.649Z,97.80
2023-01-18T00:03:29.643Z,97.91
2023-01-18T00:04:29.668Z,97.91
2023-01-18T00:05:29.588Z,97.95
2023-01-18T00:06:29.601Z,97.85
2023-01-18T00:07:29.541Z,97.85
2023-01-18T00:08:29.574Z,97.74
2023-01-18T00:09:29.532Z,97.74
2023-01-18T00:10:29.545Z,97.63
2023-01-18T00:11:29.526Z,97.63
2023-01-18T00:12:29.539Z,97.63
2023-01-18T00:13:29.498Z,97.63
2023-01-18T00:14:29.506Z,97.63
2023-01-18T00:15:29.461Z,97.53
2023-01-18T00:16:29.501Z,97.63
2023-01-18T00:17:29.413Z,97.53
2023-01-18T00:18:29.418Z,97.53
2023-01-18T00:19:29.447Z,97.53
2023-01-18T00:20:29.455Z,97.53
2023-01-18T00:21:29.397Z,97.63
2023-01-18T00:22:29.475Z,97.63
2023-01-18T00:23:29.460Z,97.63
2023-01-18T00:24:29.425Z,97.63
2023-01-18T00:25:29.381Z,97.53
2023-01-18T00:26:29.431Z,97.53
2023-01-18T00:27:29.344Z,97.53
2023-01-18T00:28:29.323Z,97.42
2023-01-18T00:29:29.275Z,97.42
2023-01-18T00:30:29.327Z,97.42
2023-01-18T00:31:29.312Z,97.42
2023-01-18T00:32:29.285Z,97.42
2023-01-18T00:33:29.217Z,97.42
2023-01-18T00:34:29.252Z,97.32
2023-01-18T00:35:29.251Z,97.32
2023-01-18T00:36:29.240Z,97.32
2023-01-18T00:37:29.202Z,97.22
2023-01-18T00:38:29.224Z,97.22
2023-01-18T00:39:29.274Z,97.22
2023-01-18T00:40:29.163Z,97.22
2023-01-18T00:41:29.143Z,97.11
2023-01-18T00:42:29.154Z,97.05
2023-01-18T00:43:29.102Z,96.94
2023-01-18T00:44:29.164Z,96.94
2023-01-18T00:45:29.209Z,96.94
2023-01-18T00:46:29.081Z,97.05
2023-01-18T00:47:29.081Z,97.16
2023-01-18T00:48:29.083Z,97.16
2023-01-18T00:49:29.089Z,97.22
2023-01-18T00:50:29.109Z,97.22
2023-01-18T00:51:29.036Z,97.32
2023-01-18T00:52:29.041Z,97.32
2023-01-18T00:53:29.020Z,97.32
2023-01-18T00:54:28.978Z,97.32
2023-01-18T00:55:29.023Z,97.22
2023-01-18T00:56:28.948Z,97.26
2023-01-18T00:57:28.958Z,97.16
2023-01-18T00:58:28.943Z,97.16
2023-01-18T00:59:28.956Z,97.16
2023-01-18T01:00:28.993Z,97.05
2023-01-18T01:01:29.023Z,97.05
2023-01-18T01:02:28.920Z,97.05
2023-01-18T01:03:28.873Z,97.05
2023-01-18T01:04:28.865Z,97.05
2023-01-18T01:05:28.874Z,97.16
2023-01-18T01:06:28.849Z,97.26
2023-01-18T01:07:28.804Z,97.26
2023-01-18T01:08:28.804Z,97.26
2023-01-18T01:09:28.802Z,97.36
2023-01-18T01:10:28.827Z,97.26
2023-01-18T01:11:28.759Z,97.26
2023-01-18T01:12:28.781Z,97.26
2023-01-18T01:13:28.768Z,97.26
2023-01-18T01:14:28.743Z,97.26
2023-01-18T01:15:28.730Z,97.26
2023-01-18T01:16:28.759Z,97.26
2023-01-18T01:17:28.709Z,97.36
2023-01-18T01:18:28.729Z,97.36
2023-01-18T01:19:28.703Z,97.36
2023-01-18T01:20:28.750Z,97.36
2023-01-18T01:21:28.659Z,97.36
2023-01-18T01:22:28.669Z,97.36
2023-01-18T01:23:28.673Z,97.47
2023-01-18T01:24:28.624Z,97.47
2023-01-18T01:25:28.607Z,97.47
2023-01-18T01:26:28.590Z,97.47
2023-01-18T01:27:28.599Z,97.47
2023-01-18T01:28:28.606Z,97.58
2023-01-18T01:29:28.569Z,97.58
2023-01-18T01:30:28.551Z,97.58
2023-01-18T01:31:28.509Z,97.58
2023-01-18T01:32:28.555Z,97.47
2023-01-18T01:33:28.509Z,97.47
2023-01-18T01:34:28.522Z,97.47
2023-01-18T01:35:28.482Z,97.47
2023-01-18T01:36:28.458Z,97.47
2023-01-18T01:37:28.459Z,97.58
2023-01-18T01:38:28.462Z,97.58
2023-01-18T01:39:28.396Z,97.58
2023-01-18T01:40:28.414Z,97.58
2023-01-18T01:41:28.422Z,97.47
2023-01-18T01:42:28.407Z,97.47
2023-01-18T01:43:28.392Z,97.36
2023-01-18T01:44:28.423Z,97.36
2023-01-18T01:45:28.352Z,97.26
2023-01-18T01:46:28.326Z,97.26
2023-01-18T01:47:28.341Z,97.16
2023-01-18T01:48:28.313Z,97.16
2023-01-18T01:49:28.299Z,97.16
2023-01-18T01:50:28.317Z,97.16
2023-01-18T01:51:28.283Z,97.16
2023-01-18T01:52:28.271Z,97.16
2023-01-18T01:53:28.270Z,97.16
2023-01-18T01:54:28.232Z,97.05
2023-01-18T01:55:28.223Z,97.16
2023-01-18T01:56:28.207Z,97.05
2023-01-18T01:57:28.192Z,97.05
2023-01-18T01:58:28.193Z,96.99
2023-01-18T01:59:28.149Z,96.89
2023-01-18T02:00:28.171Z,96.89
2023-01-18T02:01:28.285Z,96.89
2023-01-18T02:02:28.208Z,96.89
2023-01-18T02:03:28.155Z,96.89
2023-01-18T02:04:28.136Z,96.78
2023-01-18T02:05:28.092Z,96.89
2023-01-18T02:06:28.113Z,96.89
2023-01-18T02:07:28.049Z,96.89
2023-01-18T02:08:28.069Z,96.99
2023-01-18T02:09:28.051Z,96.99
2023-01-18T02:10:28.054Z,96.99
2023-01-18T02:11:28.033Z,97.09
2023-01-18T02:12:28.039Z,97.09
2023-01-18T02:13:28.013Z,97.20
2023-01-18T02:14:27.988Z,97.20
2023-01-18T02:15:27.997Z,97.20
2023-01-18T02:16:28.009Z,97.20
2023-01-18T02:17:27.943Z,97.30
2023-01-18T02:18:27.988Z,97.30
2023-01-18T02:19:27.925Z,97.30
2023-01-18T02:20:27.949Z,97.30
2023-01-18T02:21:27.922Z,97.41
2023-01-18T02:22:27.874Z,97.52
2023-01-18T02:23:27.888Z,97.62
2023-01-18T02:24:27.857Z,97.62
2023-01-18T02:25:27.835Z,97.72
2023-01-18T02:26:27.841Z,97.68
2023-01-18T02:27:27.812Z,97.68
2023-01-18T02:28:27.976Z,97.78
2023-01-18T02:29:27.776Z,97.68
2023-01-18T02:30:27.783Z,97.68
2023-01-18T02:31:27.787Z,97.68
2023-01-18T02:32:27.777Z,97.72
2023-01-18T02:33:27.767Z,97.72
2023-01-18T02:34:27.741Z,97.72
2023-01-18T02:35:27.714Z,97.62
2023-01-18T02:36:27.706Z,97.52
2023-01-18T02:37:27.708Z,97.52
2023-01-18T02:38:27.712Z,97.52
2023-01-18T02:39:27.655Z,97.52
2023-01-18T02:40:27.687Z,97.52
2023-01-18T02:41:27.655Z,97.30
2023-01-18T02:42:27.637Z,97.30
2023-01-18T02:43:27.637Z,97.30
2023-01-18T02:44:27.630Z,97.30
2023-01-18T02:45:27.590Z,97.30
2023-01-18T02:46:27.726Z,97.20
2023-01-18T02:47:27.565Z,97.09
2023-01-18T02:48:27.612Z,97.09
2023-01-18T02:49:27.556Z,97.09
2023-01-18T02:50:27.589Z,97.09
2023-01-18T02:51:27.527Z,97.09
2023-01-18T02:52:27.533Z,97.09
2023-01-18T02:53:27.479Z,96.99
2023-01-18T02:54:27.543Z,97.09
2023-01-18T02:55:27.471Z,96.99
2023-01-18T02:56:27.494Z,96.99
2023-01-18T02:57:27.435Z,97.09
2023-01-18T02:58:27.445Z,97.09
2023-01-18T02:59:27.431Z,97.09
2023-01-18T03:00:27.405Z,97.09
2023-01-18T03:01:27.608Z,97.09
2023-01-18T03:02:27.416Z,97.20
2023-01-18T03:03:27.425Z,97.20
2023-01-18T03:04:27.373Z,97.20
2023-01-18T03:05:27.350Z,97.30
2023-01-18T03:06:27.332Z,97.30
2023-01-18T03:07:27.331Z,97.30
2023-01-18T03:08:27.337Z,97.26
2023-01-18T03:09:27.445Z,97.36
2023-01-18T03:10:27.328Z,97.36
2023-01-18T03:11:27.322Z,97.26
2023-01-18T03:12:27.280Z,97.26
2023-01-18T03:13:27.295Z,97.36
2023-01-18T03:14:27.257Z,97.26
2023-01-18T03:15:27.344Z,97.26
2023-01-18T03:16:27.208Z,97.26
2023-01-18T03:17:27.180Z,97.26
2023-01-18T03:18:27.236Z,97.26
2023-01-18T03:19:27.180Z,97.26
2023-01-18T03:20:27.234Z,97.26
2023-01-18T03:21:27.211Z,97.26
2023-01-18T03:22:27.135Z,97.26
2023-01-18T03:23:27.139Z,97.26
2023-01-18T03:24:27.124Z,97.26
2023-01-18T03:25:27.131Z,97.36
2023-01-18T03:26:27.142Z,97.36
2023-01-18T03:27:27.077Z,97.36
2023-01-18T03:28:27.119Z,97.36
2023-01-18T03:29:27.074Z,97.47
2023-01-18T03:30:27.210Z,97.47
2023-01-18T03:31:27.016Z,97.36
2023-01-18T03:32:26.992Z,97.26
2023-01-18T03:33:27.043Z,97.26
2023-01-18T03:34:26.977Z,97.36
2023-01-18T03:35:27.007Z,97.36
2023-01-18T03:36:27.032Z,97.36
2023-01-18T03:37:26.956Z,97.36
2023-01-18T03:38:26.958Z,97.58
2023-01-18T03:39:26.938Z,97.68
2023-01-18T03:40:26.928Z,97.89
2023-01-18T03:41:26.904Z,97.99
2023-01-18T03:42:26.877Z,98.21
2023-01-18T03:43:26.896Z,98.21
2023-01-18T03:44:27.543Z,98.31
2023-01-18T03:45:26.897Z,98.41
2023-01-18T03:46:26.905Z,98.52
2023-01-18T03:47:26.853Z,98.41
2023-01-18T03:48:26.842Z,98.52
2023-01-18T03:49:26.841Z,98.62
2023-01-18T03:50:26.796Z,98.72
2023-01-18T03:51:26.777Z,98.72
2023-01-18T03:52:26.789Z,98.94
2023-01-18T03:53:26.761Z,98.94
2023-01-18T03:54:26.731Z,99.04
2023-01-18T03:55:26.719Z,99.15
2023-01-18T03:56:26.727Z,99.15
2023-01-18T03:57:26.736Z,99.15
2023-01-18T03:58:26.687Z,99.25
2023-01-18T03:59:26.668Z,99.25
2023-01-18T04:00:26.669Z,99.30
2023-01-18T04:01:26.846Z,99.30
2023-01-18T04:02:26.642Z,99.40
2023-01-18T04:03:26.680Z,99.30
2023-01-18T04:04:26.656Z,99.30
2023-01-18T04:05:26.596Z,99.30
2023-01-18T04:06:26.594Z,99.30
2023-01-18T04:07:26.569Z,99.30
2023-01-18T04:08:26.577Z,99.30
2023-01-18T04:09:36.370Z,99.30
2023-01-18T04:10:26.557Z,99.19
2023-01-18T04:11:30.529Z,99.19
2023-01-18T04:12:26.519Z,99.19
2023-01-18T04:13:26.533Z,99.19
2023-01-18T04:14:26.482Z,99.19
2023-01-18T04:15:26.503Z,99.19
2023-01-18T04:16:26.445Z,99.19
2023-01-18T04:17:26.454Z,99.08
2023-01-18T04:18:26.428Z,99.08
2023-01-18T04:19:26.444Z,99.08
2023-01-18T04:20:26.433Z,99.08
2023-01-18T04:21:26.446Z,98.98
2023-01-18T04:22:26.405Z,98.88
2023-01-18T04:23:26.412Z,98.88
2023-01-18T04:24:26.363Z,98.77
2023-01-18T04:25:26.433Z,98.77
2023-01-18T04:26:26.330Z,98.77
2023-01-18T04:27:26.337Z,98.67
2023-01-18T04:28:26.357Z,98.56
2023-01-18T04:29:26.324Z,98.56
2023-01-18T04:30:26.345Z,98.56
2023-01-18T04:31:26.329Z,98.46
2023-01-18T04:32:26.272Z,98.46
2023-01-18T04:33:26.269Z,98.46
2023-01-18T04:34:26.232Z,98.46
2023-01-18T04:35:26.225Z,98.35
2023-01-18T04:36:26.192Z,98.35
2023-01-18T04:37:26.220Z,98.35
2023-01-18T04:38:26.218Z,98.35
2023-01-18T04:39:26.221Z,98.35
2023-01-18T04:40:26.179Z,98.35
2023-01-18T04:41:26.193Z,98.35
2023-01-18T04:42:26.164Z,98.35
2023-01-18T04:43:26.135Z,98.35
2023-01-18T04:44:26.105Z,98.46
2023-01-18T04:45:26.124Z,98.46
2023-01-18T04:46:26.112Z,98.46
2023-01-18T04:47:26.070Z,98.46
2023-01-18T04:48:26.058Z,98.46
2023-01-18T04:49:26.044Z,98.46
2023-01-18T04:50:26.045Z,98.46
2023-01-18T04:51:26.051Z,98.46
2023-01-18T04:52:26.037Z,98.46
2023-01-18T04:53:26.017Z,98.35
2023-01-18T04:54:26.031Z,98.46
2023-01-18T04:55:25.996Z,98.46
2023-01-18T04:56:25.975Z,98.46
2023-01-18T04:57:25.954Z,98.35
2023-01-18T04:58:25.963Z,98.35
2023-01-18T04:59:25.936Z,98.46
2023-01-18T05:00:26.009Z,98.35
2023-01-18T05:01:26.008Z,98.25
2023-01-18T05:02:25.980Z,98.25
2023-01-18T05:03:25.896Z,98.25
2023-01-18T05:04:25.855Z,98.35
2023-01-18T05:05:26.466Z,98.35
2023-01-18T05:06:25.827Z,98.35
2023-01-18T05:07:25.864Z,98.25
2023-01-18T05:08:25.825Z,98.14
2023-01-18T05:09:25.846Z,98.14
2023-01-18T05:10:25.799Z,98.04
2023-01-18T05:11:25.763Z,98.14
2023-01-18T05:12:25.749Z,98.14
2023-01-18T05:13:25.802Z,98.14
2023-01-18T05:14:25.755Z,98.04
2023-01-18T05:15:25.735Z,98.04
2023-01-18T05:16:25.791Z,98.04
2023-01-18T05:17:25.724Z,98.14
2023-01-18T05:18:25.682Z,98.14
2023-01-18T05:19:25.708Z,98.14
2023-01-18T05:20:25.676Z,98.14
2023-01-18T05:21:25.674Z,98.14
2023-01-18T05:22:25.635Z,98.04
2023-01-18T05:23:25.686Z,98.04
2023-01-18T05:24:26.721Z,98.04
2023-01-18T05:25:25.599Z,98.04
2023-01-18T05:26:29.438Z,97.93
2023-01-18T05:27:25.583Z,97.93
2023-01-18T05:28:25.595Z,97.93
2023-01-18T05:29:25.578Z,97.83
2023-01-18T05:30:25.559Z,97.83
2023-01-18T05:31:25.559Z,97.87
2023-01-18T05:32:25.507Z,97.77
2023-01-18T05:33:25.516Z,97.77
2023-01-18T05:34:25.466Z,97.77
2023-01-18T05:35:25.512Z,97.77
2023-01-18T05:36:25.493Z,97.77
2023-01-18T05:37:25.475Z,97.77
2023-01-18T05:38:25.446Z,97.66
2023-01-18T05:39:25.426Z,97.66
2023-01-18T05:40:25.437Z,97.66
2023-01-18T05:41:25.458Z,97.66
2023-01-18T05:42:25.385Z,97.66
2023-01-18T05:43:25.414Z,97.66
2023-01-18T05:44:25.378Z,97.66
2023-01-18T05:45:25.371Z,97.56
2023-01-18T05:46:25.360Z,97.56
2023-01-18T05:47:25.322Z,97.56
2023-01-18T05:48:25.344Z,97.56
2023-01-18T05:49:25.326Z,97.45
2023-01-18T05:50:25.310Z,97.45
2023-01-18T05:51:25.278Z,97.45
2023-01-18T05:52:25.284Z,97.45
2023-01-18T05:53:25.267Z,97.45
2023-01-18T05:54:25.231Z,97.45
2023-01-18T05:55:25.245Z,97.45
2023-01-18T05:56:25.217Z,97.45
2023-01-18T05:57:25.234Z,97.56
2023-01-18T05:58:25.216Z,97.56
2023-01-18T05:59:25.231Z,97.45
2023-01-18T06:00:25.188Z,97.45
2023-01-18T06:01:25.280Z,97.45
2023-01-18T06:02:25.137Z,97.45
2023-01-18T06:03:25.221Z,97.45
2023-01-18T06:04:25.125Z,97.45
2023-01-18T06:05:25.139Z,97.45
2023-01-18T06:06:25.105Z,97.56
2023-01-18T06:07:25.109Z,97.45
2023-01-18T06:08:25.048Z,97.45
2023-01-18T06:09:25.103Z,97.45
2023-01-18T06:10:25.027Z,97.35
2023-01-18T06:11:25.027Z,97.45
2023-01-18T06:12:25.035Z,97.35
2023-01-18T06:13:25.056Z,97.35
2023-01-18T06:14:24.975Z,97.35
2023-01-18T06:15:25.016Z,97.39
2023-01-18T06:16:25.006Z,97.29
2023-01-18T06:17:24.954Z,97.29
2023-01-18T06:18:24.991Z,97.29
2023-01-18T06:19:24.933Z,97.39
2023-01-18T06:20:24.942Z,97.50
2023-01-18T06:21:24.930Z,97.50
2023-01-18T06:22:24.902Z,97.50
2023-01-18T06:23:24.904Z,97.60
2023-01-18T06:24:24.871Z,97.60
2023-01-18T06:25:24.927Z,97.60
2023-01-18T06:26:24.865Z,97.60
2023-01-18T06:27:24.898Z,97.60
2023-01-18T06:28:24.843Z,97.60
2023-01-18T06:29:24.851Z,97.60
2023-01-18T06:30:24.807Z,97.50
2023-01-18T06:31:24.840Z,97.60
2023-01-18T06:32:24.759Z,97.50
2023-01-18T06:33:24.773Z,97.50
2023-01-18T06:34:24.759Z,97.50
2023-01-18T06:35:24.758Z,97.50
2023-01-18T06:36:24.711Z,97.60
2023-01-18T06:37:24.702Z,97.60
2023-01-18T06:38:24.735Z,97.60
2023-01-18T06:39:24.687Z,97.60
2023-01-18T06:40:24.685Z,97.60
2023-01-18T06:41:24.678Z,97.60
2023-01-18T06:42:24.679Z,97.50
2023-01-18T06:43:24.667Z,97.50
2023-01-18T06:44:24.618Z,97.50
2023-01-18T06:45:24.656Z,97.50
2023-01-18T06:46:24.607Z,97.50
2023-01-18T06:47:24.580Z,97.50
2023-01-18T06:48:24.572Z,97.39
2023-01-18T06:49:24.558Z,97.39
2023-01-18T06:50:24.565Z,97.39
2023-01-18T06:51:24.557Z,97.39
2023-01-18T06:52:24.517Z,97.29
2023-01-18T06:53:24.504Z,97.39
2023-01-18T06:54:24.488Z,97.39
2023-01-18T06:55:24.491Z,97.29
2023-01-18T06:56:24.483Z,97.29
2023-01-18T06:57:24.468Z,97.18
2023-01-18T06:58:24.471Z,97.18
2023-01-18T06:59:24.471Z,97.18
2023-01-18T07:00:24.435Z,97.29
2023-01-18T07:01:24.500Z,97.29
2023-01-18T07:02:24.393Z,97.39
2023-01-18T07:03:24.408Z,97.39
2023-01-18T07:04:24.423Z,97.39
2023-01-18T07:05:24.381Z,97.50
2023-01-18T07:06:24.360Z,97.50
2023-01-18T07:07:24.354Z,97.50
2023-01-18T07:08:24.340Z,97.50
2023-01-18T07:09:24.344Z,97.50
2023-01-18T07:10:24.309Z,97.50
2023-01-18T07:11:24.287Z,97.50
2023-01-18T07:12:24.317Z,97.50
2023-01-18T07:13:24.292Z,97.60
2023-01-18T07:14:24.252Z,97.50
2023-01-18T07:15:24.229Z,97.60
2023-01-18T07:16:24.279Z,97.50
2023-01-18T07:17:24.210Z,97.50
2023-01-18T07:18:24.190Z,97.50
2023-01-18T07:19:24.189Z,97.50
2023-01-18T07:20:24.154Z,97.50
2023-01-18T07:21:24.186Z,97.50
2023-01-18T07:22:24.126Z,97.50
2023-01-18T07:23:24.177Z,97.60
2023-01-18T07:24:24.163Z,97.60
2023-01-18T07:25:24.135Z,97.60
2023-01-18T07:26:24.103Z,97.60
2023-01-18T07:27:24.115Z,97.50
2023-01-18T07:28:24.105Z,97.50
2023-01-18T07:29:24.063Z,97.50
2023-01-18T07:30:24.079Z,97.50
2023-01-18T07:31:24.041Z,97.50
2023-01-18T07:32:24.013Z,97.50
2023-01-18T07:33:24.014Z,97.50
2023-01-18T07:34:23.996Z,97.60
2023-01-18T07:35:24.088Z,97.60
2023-01-18T07:36:24.000Z,97.60
2023-01-18T07:37:23.968Z,97.60
2023-01-18T07:38:23.972Z,97.60
2023-01-18T07:39:23.960Z,97.60
2023-01-18T07:40:23.959Z,97.60
2023-01-18T07:41:23.898Z,97.50
2023-01-18T07:42:23.938Z,97.50
2023-01-18T07:43:23.926Z,97.50
2023-01-18T07:44:23.904Z,97.50
2023-01-18T07:45:23.873Z,97.60
2023-01-18T07:46:23.896Z,97.60
2023-01-18T07:47:23.846Z,97.50
2023-01-18T07:48:23.857Z,97.60
2023-01-18T07:49:23.837Z,97.60
2023-01-18T07:50:23.825Z,97.60
2023-01-18T07:51:23.775Z,97.60
2023-01-18T07:52:23.881Z,97.60
2023-01-18T07:53:23.757Z,97.60
2023-01-18T07:54:23.767Z,97.60
2023-01-18T07:55:23.785Z,97.60
2023-01-18T07:56:23.754Z,97.71
2023-01-18T07:57:23.706Z,97.71
2023-01-18T07:58:23.698Z,97.71
2023-01-18T07:59:23.705Z,97.77
2023-01-18T08:00:23.698Z,97.77
2023-01-18T08:01:23.843Z,97.77
2023-01-18T08:02:23.699Z,97.77
2023-01-18T08:03:23.627Z,97.77
2023-01-18T08:04:23.652Z,97.87
2023-01-18T08:05:23.632Z,97.87
2023-01-18T08:06:23.597Z,97.87
2023-01-18T08:07:23.610Z,97.87
2023-01-18T08:08:23.601Z,97.87
2023-01-18T08:09:23.600Z,97.87
2023-01-18T08:10:23.553Z,97.87
2023-01-18T08:11:23.520Z,97.98
2023-01-18T08:12:23.525Z,98.19
2023-01-18T08:13:23.508Z,98.19
2023-01-18T08:14:23.888Z,98.19
2023-01-18T08:15:23.508Z,98.25
2023-01-18T08:16:23.523Z,98.25
2023-01-18T08:17:23.479Z,98.25
2023-01-18T08:18:23.474Z,98.35
2023-01-18T08:19:23.457Z,98.35
2023-01-18T08:20:23.431Z,98.35
2023-01-18T08:21:23.420Z,98.46
2023-01-18T08:22:23.399Z,98.46
2023-01-18T08:23:23.416Z,98.46
2023-01-18T08:24:23.405Z,98.56
2023-01-18T08:25:23.386Z,98.56
2023-01-18T08:26:23.383Z,98.46
2023-01-18T08:27:24.704Z,98.46
2023-01-18T08:28:23.338Z,98.46
2023-01-18T08:29:23.299Z,98.46
2023-01-18T08:30:23.324Z,98.46
2023-01-18T08:31:23.338Z,98.46
2023-01-18T08:32:23.280Z,98.56
2023-01-18T08:33:23.247Z,98.56
2023-01-18T08:34:23.324Z,98.56
2023-01-18T08:35:23.855Z,98.56
2023-01-18T08:36:23.285Z,98.67
2023-01-18T08:37:23.233Z,98.67
2023-01-18T08:38:23.222Z,98.77
2023-01-18T08:39:23.199Z,98.88
2023-01-18T08:40:23.188Z,98.98
2023-01-18T08:41:23.194Z,98.98
2023-01-18T08:42:23.154Z,99.08
2023-01-18T08:43:23.133Z,99.08
2023-01-18T08:44:23.149Z,99.15
2023-01-18T08:45:23.123Z,99.15
2023-01-18T08:46:23.179Z,99.15
2023-01-18T08:47:23.130Z,99.25
2023-01-18T08:48:23.107Z,99.25
2023-01-18T08:49:23.130Z,99.25
2023-01-18T08:50:23.149Z,99.35
2023-01-18T08:51:23.260Z,99.35
2023-01-18T08:52:23.076Z,99.35
2023-01-18T08:53:23.029Z,99.46
2023-01-18T08:54:23.033Z,99.46
2023-01-18T08:55:23.007Z,99.41
2023-01-18T08:56:23.007Z,99.41
2023-01-18T08:57:23.005Z,99.41
2023-01-18T08:58:22.950Z,99.41
2023-01-18T08:59:23.046Z,99.41
2023-01-18T09:00:22.951Z,99.41
2023-01-18T09:01:23.129Z,99.52
2023-01-18T09:02:27.157Z,99.41
2023-01-18T09:03:22.891Z,99.41
2023-01-18T09:04:22.915Z,99.52
2023-01-18T09:05:22.920Z,99.41
2023-01-18T09:06:22.880Z,99.41
2023-01-18T09:07:22.844Z,99.52
2023-01-18T09:08:22.923Z,99.52
2023-01-18T09:09:22.833Z,99.52
2023-01-18T09:10:32.254Z,99.41
2023-01-18T09:11:30.778Z,99.41
2023-01-18T09:12:30.814Z,99.41
2023-01-18T09:13:22.760Z,99.52
2023-01-18T09:14:22.759Z,99.52
2023-01-18T09:15:22.719Z,99.52
2023-01-18T09:16:22.984Z,99.52
2023-01-18T09:17:22.747Z,99.52
2023-01-18T09:18:22.712Z,99.48
2023-01-18T09:19:22.716Z,99.48
2023-01-18T09:20:22.721Z,99.48
2023-01-18T09:21:22.658Z,99.58
2023-01-18T09:22:22.656Z,99.58
2023-01-18T09:23:22.636Z,99.48
2023-01-18T09:24:22.637Z,99.48
2023-01-18T09:25:22.654Z,99.58
2023-01-18T09:26:22.643Z,99.58
2023-01-18T09:27:22.592Z,99.58
2023-01-18T09:28:22.645Z,99.58
2023-01-18T09:29:22.578Z,99.68
2023-01-18T09:30:22.580Z,99.68
2023-01-18T09:31:22.702Z,99.68
2023-01-18T09:32:22.536Z,99.68
2023-01-18T09:33:22.581Z,99.68
2023-01-18T09:34:22.538Z,99.64
2023-01-18T09:35:22.496Z,99.64
2023-01-18T09:36:22.489Z,99.74
2023-01-18T09:37:22.492Z,99.74
2023-01-18T09:38:22.493Z,99.74
2023-01-18T09:39:22.476Z,99.64
2023-01-18T09:40:22.484Z,99.64
2023-01-18T09:41:22.417Z,99.74
2023-01-18T09:42:22.470Z,99.70
2023-01-18T09:43:22.424Z,99.70
2023-01-18T09:44:22.381Z,99.59
2023-01-18T09:45:22.410Z,99.59
2023-01-18T09:46:22.552Z,99.59
2023-01-18T09:47:22.378Z,99.59
2023-01-18T09:48:22.364Z,99.59
2023-01-18T09:49:22.333Z,99.59
2023-01-18T09:50:22.360Z,99.59
2023-01-18T09:51:22.306Z,99.59
2023-01-18T09:52:22.346Z,99.49
2023-01-18T09:53:22.378Z,99.44
2023-01-18T09:54:22.289Z,99.44
2023-01-18T09:55:22.280Z,99.44
2023-01-18T09:56:22.285Z,99.44
2023-01-18T09:57:22.243Z,99.44
2023-01-18T09:58:22.207Z,99.44
2023-01-18T09:59:22.192Z,99.34
2023-01-18T10:00:22.177Z,99.34
2023-01-18T10:01:22.398Z,99.34
2023-01-18T10:02:22.212Z,99.34
2023-01-18T10:03:22.161Z,99.24
2023-01-18T10:04:22.164Z,99.24
2023-01-18T10:05:22.166Z,99.13
2023-01-18T10:06:22.116Z,99.02
2023-01-18T10:07:22.094Z,99.02
2023-01-18T10:08:22.085Z,98.92
2023-01-18T10:09:22.055Z,98.92
2023-01-18T10:10:22.063Z,98.92
2023-01-18T10:11:22.062Z,98.88
2023-01-18T10:12:22.055Z,98.88
2023-01-18T10:13:22.043Z,98.88
2023-01-18T10:14:22.084Z,98.88
2023-01-18T10:15:22.039Z,98.77
2023-01-18T10:16:22.062Z,98.77
2023-01-18T10:17:22.045Z,98.77
2023-01-18T10:18:21.978Z,98.77
2023-01-18T10:19:21.949Z,98.67
2023-01-18T10:21:20.506Z,98.67
2023-01-18T10:22:20.487Z,98.67
2023-01-18T10:23:20.499Z,98.67
2023-01-18T10:24:21.222Z,98.56
2023-01-18T10:25:20.457Z,98.56
2023-01-18T10:26:20.474Z,98.56
2023-01-18T10:27:20.461Z,98.56
2023-01-18T10:28:20.435Z,98.56
2023-01-18T10:29:20.402Z,98.56
2023-01-18T10:30:20.373Z,98.56
2023-01-18T10:31:20.437Z,98.56
2023-01-18T10:32:20.349Z,98.67
2023-01-18T10:33:20.379Z,98.56
2023-01-18T10:34:20.363Z,98.67
2023-01-18T10:35:20.370Z,98.67
2023-01-18T10:36:20.328Z,98.67
2023-01-18T10:37:20.324Z,98.67
2023-01-18T10:38:20.313Z,98.62
2023-01-18T10:39:20.269Z,98.62
2023-01-18T10:40:20.277Z,98.62
2023-01-18T10:41:20.302Z,98.62
2023-01-18T10:42:20.221Z,98.72
2023-01-18T10:43:20.263Z,98.72
2023-01-18T10:44:20.233Z,98.72
2023-01-18T10:45:20.437Z,98.72
2023-01-18T10:46:20.204Z,98.72
2023-01-18T10:47:20.199Z,98.72
2023-01-18T10:48:20.163Z,98.72
2023-01-18T10:49:20.180Z,98.72
2023-01-18T10:50:20.165Z,98.72
2023-01-18T10:51:20.137Z,98.72
2023-01-18T10:52:20.110Z,98.72
2023-01-18T10:53:20.098Z,98.72
2023-01-18T10:54:20.076Z,98.72
2023-01-18T10:55:20.097Z,98.68
2023-01-18T10:56:20.128Z,98.68
2023-01-18T10:57:20.069Z,98.68
2023-01-18T10:58:20.013Z,98.68
2023-01-18T10:59:20.023Z,98.68
2023-01-18T11:00:20.023Z,98.58
2023-01-18T11:01:20.232Z,98.47
2023-01-18T11:02:20.009Z,98.47
2023-01-18T11:03:19.975Z,98.47
2023-01-18T11:04:19.955Z,98.47
2023-01-18T11:05:19.974Z,98.47
2023-01-18T11:06:19.924Z,98.37
2023-01-18T11:07:19.952Z,98.37
2023-01-18T11:08:19.916Z,98.26
2023-01-18T11:09:19.894Z,98.26
2023-01-18T11:10:19.859Z,98.26
2023-01-18T11:11:19.889Z,98.26
2023-01-18T11:12:19.854Z,98.26
2023-01-18T11:13:19.873Z,98.16
2023-01-18T11:14:19.819Z,98.16
2023-01-18T11:15:19.844Z,98.05
2023-01-18T11:16:19.847Z,97.95
2023-01-18T11:17:19.828Z,97.85
2023-01-18T11:18:19.797Z,97.74
2023-01-18T11:19:19.826Z,97.64
2023-01-18T11:20:19.763Z,97.53
2023-01-18T11:21:19.768Z,97.32
2023-01-18T11:22:19.742Z,97.22
2023-01-18T11:23:19.716Z,96.91
2023-01-18T11:24:19.692Z,96.59
2023-01-18T11:25:19.708Z,96.49
2023-01-18T11:26:19.674Z,96.49
2023-01-18T11:27:19.756Z,96.28
2023-01-18T11:28:19.691Z,96.17
2023-01-18T11:29:19.665Z,95.97
2023-01-18T11:30:19.627Z,95.86
2023-01-18T11:31:22.030Z,95.76
2023-01-18T11:32:19.593Z,95.72
2023-01-18T11:33:19.601Z,95.65
2023-01-18T11:34:19.587Z,95.50
2023-01-18T11:35:19.580Z,95.50
2023-01-18T11:36:19.554Z,95.50
2023-01-18T11:37:19.569Z,95.50
2023-01-18T11:38:19.539Z,95.40
2023-01-18T11:39:19.525Z,95.40
2023-01-18T11:40:19.567Z,95.09
2023-01-18T11:41:19.498Z,94.88
2023-01-18T11:42:19.480Z,94.78
2023-01-18T11:43:19.485Z,94.67
2023-01-18T11:44:19.437Z,94.67
2023-01-18T11:45:19.443Z,94.57
2023-01-18T11:46:19.474Z,94.46
2023-01-18T11:47:19.433Z,94.35
2023-01-18T11:48:19.429Z,94.35
2023-01-18T11:49:19.415Z,94.25
2023-01-18T11:50:22.539Z,94.35
2023-01-18T11:51:19.397Z,94.21
2023-01-18T11:52:19.354Z,94.21
2023-01-18T11:53:19.363Z,94.21
2023-01-18T11:54:19.323Z,94.10
2023-01-18T11:55:19.334Z,94.10
2023-01-18T11:56:19.297Z,94.00
2023-01-18T11:57:19.276Z,94.00
2023-01-18T11:58:19.268Z,93.79
2023-01-18T11:59:19.330Z,93.48
2023-01-18T12:00:19.260Z,93.37
2023-01-18T12:01:19.263Z,93.06
2023-01-18T12:02:19.359Z,92.85
2023-01-18T12:03:19.311Z,92.75
2023-01-18T12:04:19.210Z,92.65
2023-01-18T12:05:19.201Z,92.54
2023-01-18T12:06:19.185Z,92.54
2023-01-18T12:07:19.172Z,92.44
2023-01-18T12:08:19.483Z,92.54
2023-01-18T12:09:19.169Z,92.65
2023-01-18T12:10:19.127Z,92.65
2023-01-18T12:11:19.121Z,92.65
2023-01-18T12:12:19.922Z,92.65
2023-01-18T12:13:19.093Z,92.60
2023-01-18T12:14:19.055Z,92.60
2023-01-18T12:15:19.053Z,92.60
2023-01-18T12:16:19.092Z,92.60
2023-01-18T12:17:19.020Z,92.50
2023-01-18T12:18:19.504Z,92.40
2023-01-18T12:19:19.040Z,92.29
2023-01-18T12:20:19.032Z,92.29
2023-01-18T12:21:19.106Z,92.29
2023-01-18T12:22:19.044Z,92.29
2023-01-18T12:23:18.964Z,92.08
2023-01-18T12:24:18.925Z,91.97
2023-01-18T12:25:18.957Z,91.77
2023-01-18T12:26:18.922Z,91.77
2023-01-18T12:27:18.908Z,91.52
2023-01-18T12:28:18.898Z,91.00
2023-01-18T12:29:18.877Z,90.58
2023-01-18T12:30:18.967Z,90.58
2023-01-18T12:31:18.857Z,90.16
2023-01-18T12:32:18.826Z,90.06
2023-01-18T12:33:18.853Z,89.70
2023-01-18T12:34:18.824Z,89.39
2023-01-18T12:35:24.476Z,89.08
2023-01-18T12:36:19.793Z,88.87
2023-01-18T12:37:18.798Z,88.35
2023-01-18T12:38:18.748Z,88.04
2023-01-18T12:39:18.754Z,87.99
2023-01-18T12:40:18.727Z,87.48
2023-01-18T12:41:18.768Z,87.06
2023-01-18T12:42:18.746Z,87.27
2023-01-18T12:43:18.721Z,87.27
2023-01-18T12:44:18.683Z,87.48
2023-01-18T12:45:18.663Z,87.27
2023-01-18T12:46:18.733Z,86.85
2023-01-18T12:47:18.671Z,87.06
2023-01-18T12:48:18.647Z,86.85
2023-01-18T12:49:18.659Z,86.85
2023-01-18T12:50:18.639Z,87.06
2023-01-18T12:51:18.590Z,87.02
2023-01-18T12:52:19.561Z,87.12
2023-01-18T12:53:18.561Z,87.12